sensor_id;sensor_type;location;lat;lon;timestamp;temperature;humidity
75321;DHT22;68337;52.196;5.660;2023-08-08T00:01:21;14.20;99.90
75321;DHT22;68337;52.196;5.660;2023-08-08T00:03:46;14.20;99.90
75321;DHT22;68337;52.196;5.660;2023-08-08T00:06:12;14.20;99.90
75321;DHT22;68337;52.196;5.660;2023-08-08T00:08:38;14.20;99.90
75321;DHT22;68337;52.196;5.660;2023-08-08T00:11:04;14.10;99.90
75321;DHT22;68337;52.196;5.660;2023-08-08T00:13:29;14.20;99.90
75321;DHT22;68337;52.196;5.660;2023-08-08T00:15:55;14.30;99.90
75321;DHT22;68337;52.196;5.660;2023-08-08T00:18:21;14.20;99.90
75321;DHT22;68337;52.196;5.660;2023-08-08T00:20:46;14.30;99.90
75321;DHT22;68337;52.196;5.660;2023-08-08T00:23:12;14.30;99.90
75321;DHT22;68337;52.196;5.660;2023-08-08T00:25:38;14.40;99.90
75321;DHT22;68337;52.196;5.660;2023-08-08T00:28:03;14.40;99.90
75321;DHT22;68337;52.196;5.660;2023-08-08T00:30:29;14.40;99.90
75321;DHT22;68337;52.196;5.660;2023-08-08T00:32:55;14.40;99.90
75321;DHT22;68337;52.196;5.660;2023-08-08T00:35:22;14.50;99.90
75321;DHT22;68337;52.196;5.660;2023-08-08T00:37:48;14.50;99.90
75321;DHT22;68337;52.196;5.660;2023-08-08T00:40:14;14.40;99.90
75321;DHT22;68337;52.196;5.660;2023-08-08T00:42:39;14.40;99.90
75321;DHT22;68337;52.196;5.660;2023-08-08T00:45:05;14.50;99.90
75321;DHT22;68337;52.196;5.660;2023-08-08T00:47:34;14.60;99.90
75321;DHT22;68337;52.196;5.660;2023-08-08T00:50:01;14.50;99.90
75321;DHT22;68337;52.196;5.660;2023-08-08T00:52:28;14.50;99.90
75321;DHT22;68337;52.196;5.660;2023-08-08T00:54:54;14.50;99.90
75321;DHT22;68337;52.196;5.660;2023-08-08T00:57:20;14.40;99.90
75321;DHT22;68337;52.196;5.660;2023-08-08T00:59:46;14.40;99.90
75321;DHT22;68337;52.196;5.660;2023-08-08T01:02:11;14.40;99.90
75321;DHT22;68337;52.196;5.660;2023-08-08T01:04:37;14.30;99.90
75321;DHT22;68337;52.196;5.660;2023-08-08T01:10:07;14.40;99.90
75321;DHT22;68337;52.196;5.660;2023-08-08T01:12:41;14.40;99.90
75321;DHT22;68337;52.196;5.660;2023-08-08T01:15:07;14.40;99.90
75321;DHT22;68337;52.196;5.660;2023-08-08T01:17:35;14.50;99.90
75321;DHT22;68337;52.196;5.660;2023-08-08T01:20:05;14.40;99.90
75321;DHT22;68337;52.196;5.660;2023-08-08T01:22:50;14.40;99.90
75321;DHT22;68337;52.196;5.660;2023-08-08T01:25:16;14.50;99.90
75321;DHT22;68337;52.196;5.660;2023-08-08T01:27:44;14.40;99.90
75321;DHT22;68337;52.196;5.660;2023-08-08T01:30:10;14.40;99.90
75321;DHT22;68337;52.196;5.660;2023-08-08T01:32:36;14.50;99.90
75321;DHT22;68337;52.196;5.660;2023-08-08T01:35:02;14.60;99.90
75321;DHT22;68337;52.196;5.660;2023-08-08T01:40:07;14.40;99.90
75321;DHT22;68337;52.196;5.660;2023-08-08T01:42:35;14.50;99.90
75321;DHT22;68337;52.196;5.660;2023-08-08T01:45:00;14.40;99.90
75321;DHT22;68337;52.196;5.660;2023-08-08T01:47:26;14.40;99.90
75321;DHT22;68337;52.196;5.660;2023-08-08T01:49:52;14.30;99.90
75321;DHT22;68337;52.196;5.660;2023-08-08T01:52:18;14.40;99.90
75321;DHT22;68337;52.196;5.660;2023-08-08T01:54:43;14.30;99.90
75321;DHT22;68337;52.196;5.660;2023-08-08T01:57:09;14.40;99.90
75321;DHT22;68337;52.196;5.660;2023-08-08T01:59:35;14.30;99.90
75321;DHT22;68337;52.196;5.660;2023-08-08T02:02:00;14.30;99.90
75321;DHT22;68337;52.196;5.660;2023-08-08T02:04:26;14.40;99.90
75321;DHT22;68337;52.196;5.660;2023-08-08T02:06:52;14.40;99.90
75321;DHT22;68337;52.196;5.660;2023-08-08T02:09:18;14.40;99.90
75321;DHT22;68337;52.196;5.660;2023-08-08T02:11:43;14.30;99.90
75321;DHT22;68337;52.196;5.660;2023-08-08T02:14:09;14.40;99.90
75321;DHT22;68337;52.196;5.660;2023-08-08T02:16:35;14.50;99.90
75321;DHT22;68337;52.196;5.660;2023-08-08T02:19:00;14.40;99.90
75321;DHT22;68337;52.196;5.660;2023-08-08T02:21:26;14.40;99.90
75321;DHT22;68337;52.196;5.660;2023-08-08T02:23:52;14.40;99.90
75321;DHT22;68337;52.196;5.660;2023-08-08T02:26:18;14.40;99.90
75321;DHT22;68337;52.196;5.660;2023-08-08T02:28:43;14.40;99.90
75321;DHT22;68337;52.196;5.660;2023-08-08T02:31:09;14.50;99.90
75321;DHT22;68337;52.196;5.660;2023-08-08T02:33:35;14.50;99.90
75321;DHT22;68337;52.196;5.660;2023-08-08T02:36:00;14.50;99.90
75321;DHT22;68337;52.196;5.660;2023-08-08T02:38:26;14.50;99.90
75321;DHT22;68337;52.196;5.660;2023-08-08T02:40:52;14.40;99.90
75321;DHT22;68337;52.196;5.660;2023-08-08T02:43:18;14.30;99.90
75321;DHT22;68337;52.196;5.660;2023-08-08T02:45:44;14.30;99.90
75321;DHT22;68337;52.196;5.660;2023-08-08T02:48:09;14.30;99.90
75321;DHT22;68337;52.196;5.660;2023-08-08T02:50:35;14.30;99.90
75321;DHT22;68337;52.196;5.660;2023-08-08T02:53:01;14.20;99.90
75321;DHT22;68337;52.196;5.660;2023-08-08T02:55:26;14.30;99.90
75321;DHT22;68337;52.196;5.660;2023-08-08T02:57:52;14.20;99.90
75321;DHT22;68337;52.196;5.660;2023-08-08T03:00:18;14.30;99.90
75321;DHT22;68337;52.196;5.660;2023-08-08T03:02:43;14.20;99.90
75321;DHT22;68337;52.196;5.660;2023-08-08T03:05:09;14.20;99.90
75321;DHT22;68337;52.196;5.660;2023-08-08T03:07:35;14.30;99.90
75321;DHT22;68337;52.196;5.660;2023-08-08T03:10:01;14.20;99.90
75321;DHT22;68337;52.196;5.660;2023-08-08T03:12:26;14.30;99.90
75321;DHT22;68337;52.196;5.660;2023-08-08T03:14:52;14.30;99.90
75321;DHT22;68337;52.196;5.660;2023-08-08T03:17:18;14.40;99.90
75321;DHT22;68337;52.196;5.660;2023-08-08T03:19:44;14.30;99.90
75321;DHT22;68337;52.196;5.660;2023-08-08T03:22:09;14.30;99.90
75321;DHT22;68337;52.196;5.660;2023-08-08T03:24:35;14.30;99.90
75321;DHT22;68337;52.196;5.660;2023-08-08T03:27:04;14.40;99.90
75321;DHT22;68337;52.196;5.660;2023-08-08T03:29:29;14.40;99.90
75321;DHT22;68337;52.196;5.660;2023-08-08T03:31:55;14.40;99.90
75321;DHT22;68337;52.196;5.660;2023-08-08T03:34:21;14.30;99.90
75321;DHT22;68337;52.196;5.660;2023-08-08T03:36:46;14.30;99.90
75321;DHT22;68337;52.196;5.660;2023-08-08T03:39:12;14.30;99.90
75321;DHT22;68337;52.196;5.660;2023-08-08T03:41:38;14.30;99.90
75321;DHT22;68337;52.196;5.660;2023-08-08T03:44:04;14.30;99.90
75321;DHT22;68337;52.196;5.660;2023-08-08T03:46:30;14.40;99.90
75321;DHT22;68337;52.196;5.660;2023-08-08T03:48:55;14.30;99.90
75321;DHT22;68337;52.196;5.660;2023-08-08T03:51:21;14.40;99.90
75321;DHT22;68337;52.196;5.660;2023-08-08T03:53:47;14.30;99.90
75321;DHT22;68337;52.196;5.660;2023-08-08T03:56:13;14.30;99.90
75321;DHT22;68337;52.196;5.660;2023-08-08T03:58:38;14.20;99.90
75321;DHT22;68337;52.196;5.660;2023-08-08T04:01:04;14.30;99.90
75321;DHT22;68337;52.196;5.660;2023-08-08T04:03:30;14.20;99.90
75321;DHT22;68337;52.196;5.660;2023-08-08T04:05:55;14.30;99.90
75321;DHT22;68337;52.196;5.660;2023-08-08T04:08:21;14.20;99.90
75321;DHT22;68337;52.196;5.660;2023-08-08T04:10:47;14.30;99.90
75321;DHT22;68337;52.196;5.660;2023-08-08T04:13:13;14.20;99.90
75321;DHT22;68337;52.196;5.660;2023-08-08T04:15:38;14.30;99.90
75321;DHT22;68337;52.196;5.660;2023-08-08T04:18:04;14.30;99.90
75321;DHT22;68337;52.196;5.660;2023-08-08T04:20:32;14.30;99.90
75321;DHT22;68337;52.196;5.660;2023-08-08T04:22:58;14.30;99.90
75321;DHT22;68337;52.196;5.660;2023-08-08T04:25:24;14.20;99.90
75321;DHT22;68337;52.196;5.660;2023-08-08T04:27:50;14.20;99.90
75321;DHT22;68337;52.196;5.660;2023-08-08T04:30:16;14.20;99.90
75321;DHT22;68337;52.196;5.660;2023-08-08T04:32:41;14.20;99.90
75321;DHT22;68337;52.196;5.660;2023-08-08T04:35:07;14.20;99.90
75321;DHT22;68337;52.196;5.660;2023-08-08T04:37:33;14.20;99.90
75321;DHT22;68337;52.196;5.660;2023-08-08T04:39:58;14.20;99.90
75321;DHT22;68337;52.196;5.660;2023-08-08T04:42:24;14.20;99.90
75321;DHT22;68337;52.196;5.660;2023-08-08T04:44:50;14.10;99.90
75321;DHT22;68337;52.196;5.660;2023-08-08T04:47:15;14.20;99.90
75321;DHT22;68337;52.196;5.660;2023-08-08T04:49:41;14.10;99.90
75321;DHT22;68337;52.196;5.660;2023-08-08T04:52:07;14.10;99.90
75321;DHT22;68337;52.196;5.660;2023-08-08T04:54:32;14.00;99.90
75321;DHT22;68337;52.196;5.660;2023-08-08T04:56:58;14.10;99.90
75321;DHT22;68337;52.196;5.660;2023-08-08T04:59:24;14.00;99.90
75321;DHT22;68337;52.196;5.660;2023-08-08T05:01:49;14.10;99.90
75321;DHT22;68337;52.196;5.660;2023-08-08T05:04:18;14.20;99.90
75321;DHT22;68337;52.196;5.660;2023-08-08T05:06:47;14.20;99.90
75321;DHT22;68337;52.196;5.660;2023-08-08T05:09:12;14.30;99.90
75321;DHT22;68337;52.196;5.660;2023-08-08T05:11:38;14.20;99.90
75321;DHT22;68337;52.196;5.660;2023-08-08T05:14:04;14.30;99.90
75321;DHT22;68337;52.196;5.660;2023-08-08T05:16:29;14.30;99.90
75321;DHT22;68337;52.196;5.660;2023-08-08T05:18:55;14.40;99.90
75321;DHT22;68337;52.196;5.660;2023-08-08T05:21:21;14.30;99.90
75321;DHT22;68337;52.196;5.660;2023-08-08T05:23:47;14.40;99.90
75321;DHT22;68337;52.196;5.660;2023-08-08T05:26:14;14.40;99.90
75321;DHT22;68337;52.196;5.660;2023-08-08T05:28:40;14.30;99.90
75321;DHT22;68337;52.196;5.660;2023-08-08T05:31:06;14.40;99.90
75321;DHT22;68337;52.196;5.660;2023-08-08T05:33:31;14.40;99.90
75321;DHT22;68337;52.196;5.660;2023-08-08T05:35:57;14.40;99.90
75321;DHT22;68337;52.196;5.660;2023-08-08T05:38:23;14.30;99.90
75321;DHT22;68337;52.196;5.660;2023-08-08T05:40:51;14.40;99.90
75321;DHT22;68337;52.196;5.660;2023-08-08T05:43:17;14.50;99.90
75321;DHT22;68337;52.196;5.660;2023-08-08T05:45:46;14.80;99.90
75321;DHT22;68337;52.196;5.660;2023-08-08T05:48:12;14.70;99.90
75321;DHT22;68337;52.196;5.660;2023-08-08T05:50:38;14.80;99.90
75321;DHT22;68337;52.196;5.660;2023-08-08T05:53:04;15.10;99.90
75321;DHT22;68337;52.196;5.660;2023-08-08T05:55:30;15.10;99.90
75321;DHT22;68337;52.196;5.660;2023-08-08T05:57:56;15.20;99.90
75321;DHT22;68337;52.196;5.660;2023-08-08T06:00:22;15.40;99.90
75321;DHT22;68337;52.196;5.660;2023-08-08T06:02:48;15.30;99.90
75321;DHT22;68337;52.196;5.660;2023-08-08T06:05:13;15.40;99.90
75321;DHT22;68337;52.196;5.660;2023-08-08T06:07:39;15.40;99.90
75321;DHT22;68337;52.196;5.660;2023-08-08T06:10:06;15.50;99.90
75321;DHT22;68337;52.196;5.660;2023-08-08T06:12:32;15.50;99.90
75321;DHT22;68337;52.196;5.660;2023-08-08T06:14:59;15.60;99.90
75321;DHT22;68337;52.196;5.660;2023-08-08T06:17:28;15.70;99.90
75321;DHT22;68337;52.196;5.660;2023-08-08T06:19:53;15.80;99.90
75321;DHT22;68337;52.196;5.660;2023-08-08T06:22:21;15.80;99.90
75321;DHT22;68337;52.196;5.660;2023-08-08T06:24:47;15.90;99.90
75321;DHT22;68337;52.196;5.660;2023-08-08T06:27:13;15.90;99.90
75321;DHT22;68337;52.196;5.660;2023-08-08T06:29:39;16.10;99.90
75321;DHT22;68337;52.196;5.660;2023-08-08T06:32:05;16.10;99.90
75321;DHT22;68337;52.196;5.660;2023-08-08T06:34:31;16.40;99.90
75321;DHT22;68337;52.196;5.660;2023-08-08T06:36:57;16.50;99.90
75321;DHT22;68337;52.196;5.660;2023-08-08T06:39:23;16.70;99.90
75321;DHT22;68337;52.196;5.660;2023-08-08T06:41:48;16.80;99.90
75321;DHT22;68337;52.196;5.660;2023-08-08T06:44:14;16.70;99.90
75321;DHT22;68337;52.196;5.660;2023-08-08T06:46:40;16.90;99.90
75321;DHT22;68337;52.196;5.660;2023-08-08T06:49:06;17.00;99.90
75321;DHT22;68337;52.196;5.660;2023-08-08T06:51:32;17.00;99.90
75321;DHT22;68337;52.196;5.660;2023-08-08T06:53:58;17.20;99.90
75321;DHT22;68337;52.196;5.660;2023-08-08T06:56:24;17.30;99.90
75321;DHT22;68337;52.196;5.660;2023-08-08T06:58:52;17.60;99.90
75321;DHT22;68337;52.196;5.660;2023-08-08T07:01:18;17.50;99.90
75321;DHT22;68337;52.196;5.660;2023-08-08T07:03:45;17.60;99.90
75321;DHT22;68337;52.196;5.660;2023-08-08T07:06:12;17.70;99.90
75321;DHT22;68337;52.196;5.660;2023-08-08T07:08:38;17.80;99.90
75321;DHT22;68337;52.196;5.660;2023-08-08T07:11:06;17.80;99.90
75321;DHT22;68337;52.196;5.660;2023-08-08T07:13:32;17.60;99.90
75321;DHT22;68337;52.196;5.660;2023-08-08T07:16:01;17.40;99.90
75321;DHT22;68337;52.196;5.660;2023-08-08T07:18:26;17.70;99.90
75321;DHT22;68337;52.196;5.660;2023-08-08T07:20:53;17.70;99.90
75321;DHT22;68337;52.196;5.660;2023-08-08T07:23:19;18.00;99.90
75321;DHT22;68337;52.196;5.660;2023-08-08T07:25:45;18.10;99.90
75321;DHT22;68337;52.196;5.660;2023-08-08T07:28:12;18.20;99.90
75321;DHT22;68337;52.196;5.660;2023-08-08T07:30:40;18.30;99.90
75321;DHT22;68337;52.196;5.660;2023-08-08T07:33:06;18.50;99.90
75321;DHT22;68337;52.196;5.660;2023-08-08T07:35:34;18.20;99.90
75321;DHT22;68337;52.196;5.660;2023-08-08T07:38:00;18.50;99.90
75321;DHT22;68337;52.196;5.660;2023-08-08T07:40:26;18.80;99.90
75321;DHT22;68337;52.196;5.660;2023-08-08T07:42:51;18.80;99.90
75321;DHT22;68337;52.196;5.660;2023-08-08T07:45:18;18.80;99.90
75321;DHT22;68337;52.196;5.660;2023-08-08T07:47:44;18.90;99.90
75321;DHT22;68337;52.196;5.660;2023-08-08T07:50:11;19.10;99.90
75321;DHT22;68337;52.196;5.660;2023-08-08T07:52:38;19.20;99.90
75321;DHT22;68337;52.196;5.660;2023-08-08T07:55:04;19.20;99.90
75321;DHT22;68337;52.196;5.660;2023-08-08T07:57:31;19.20;99.90
75321;DHT22;68337;52.196;5.660;2023-08-08T08:00:00;19.10;99.90
75321;DHT22;68337;52.196;5.660;2023-08-08T08:02:32;19.10;99.90
75321;DHT22;68337;52.196;5.660;2023-08-08T08:04:58;18.70;99.90
75321;DHT22;68337;52.196;5.660;2023-08-08T08:07:27;18.40;99.90
75321;DHT22;68337;52.196;5.660;2023-08-08T08:09:53;18.40;99.90
75321;DHT22;68337;52.196;5.660;2023-08-08T08:12:19;18.80;99.90
75321;DHT22;68337;52.196;5.660;2023-08-08T08:14:45;18.90;99.90
75321;DHT22;68337;52.196;5.660;2023-08-08T08:17:11;19.00;99.90
75321;DHT22;68337;52.196;5.660;2023-08-08T08:19:36;19.40;99.90
75321;DHT22;68337;52.196;5.660;2023-08-08T08:22:02;19.60;99.90
75321;DHT22;68337;52.196;5.660;2023-08-08T08:24:28;20.20;99.90
75321;DHT22;68337;52.196;5.660;2023-08-08T08:26:54;20.20;99.90
75321;DHT22;68337;52.196;5.660;2023-08-08T08:29:20;20.20;99.90
75321;DHT22;68337;52.196;5.660;2023-08-08T08:31:45;19.90;99.90
75321;DHT22;68337;52.196;5.660;2023-08-08T08:34:12;20.00;99.90
75321;DHT22;68337;52.196;5.660;2023-08-08T08:36:38;20.30;99.90
75321;DHT22;68337;52.196;5.660;2023-08-08T08:39:04;20.40;99.90
75321;DHT22;68337;52.196;5.660;2023-08-08T08:41:33;20.80;99.90
75321;DHT22;68337;52.196;5.660;2023-08-08T08:44:04;20.40;99.90
75321;DHT22;68337;52.196;5.660;2023-08-08T08:46:31;20.20;99.90
75321;DHT22;68337;52.196;5.660;2023-08-08T08:48:58;20.40;99.90
75321;DHT22;68337;52.196;5.660;2023-08-08T08:51:25;20.70;99.90
75321;DHT22;68337;52.196;5.660;2023-08-08T08:53:51;20.00;99.90
75321;DHT22;68337;52.196;5.660;2023-08-08T08:56:18;20.20;99.90
75321;DHT22;68337;52.196;5.660;2023-08-08T08:58:44;20.70;99.90
75321;DHT22;68337;52.196;5.660;2023-08-08T09:01:09;20.40;99.90
75321;DHT22;68337;52.196;5.660;2023-08-08T09:03:38;20.60;99.90
75321;DHT22;68337;52.196;5.660;2023-08-08T09:06:05;20.50;99.90
75321;DHT22;68337;52.196;5.660;2023-08-08T09:08:31;20.60;99.90
75321;DHT22;68337;52.196;5.660;2023-08-08T09:10:57;20.50;99.90
75321;DHT22;68337;52.196;5.660;2023-08-08T09:13:23;20.30;99.90
75321;DHT22;68337;52.196;5.660;2023-08-08T09:15:52;20.10;99.90
75321;DHT22;68337;52.196;5.660;2023-08-08T09:18:18;20.00;99.90
75321;DHT22;68337;52.196;5.660;2023-08-08T09:20:48;19.90;99.90
75321;DHT22;68337;52.196;5.660;2023-08-08T09:23:14;20.00;99.90
75321;DHT22;68337;52.196;5.660;2023-08-08T09:25:40;19.60;99.90
75321;DHT22;68337;52.196;5.660;2023-08-08T09:28:06;19.50;99.90
75321;DHT22;68337;52.196;5.660;2023-08-08T09:30:32;19.60;99.90
75321;DHT22;68337;52.196;5.660;2023-08-08T09:32:59;19.50;99.90
75321;DHT22;68337;52.196;5.660;2023-08-08T09:35:29;19.60;99.90
75321;DHT22;68337;52.196;5.660;2023-08-08T09:37:55;19.50;99.90
75321;DHT22;68337;52.196;5.660;2023-08-08T09:40:23;19.90;99.90
75321;DHT22;68337;52.196;5.660;2023-08-08T09:42:51;20.40;99.90
75321;DHT22;68337;52.196;5.660;2023-08-08T09:45:19;20.60;99.90
75321;DHT22;68337;52.196;5.660;2023-08-08T09:47:45;20.70;99.90
75321;DHT22;68337;52.196;5.660;2023-08-08T09:50:11;20.10;99.90
75321;DHT22;68337;52.196;5.660;2023-08-08T09:52:38;20.10;99.90
75321;DHT22;68337;52.196;5.660;2023-08-08T09:55:05;19.50;99.90
75321;DHT22;68337;52.196;5.660;2023-08-08T09:57:32;20.00;99.90
75321;DHT22;68337;52.196;5.660;2023-08-08T09:59:58;19.90;99.90
75321;DHT22;68337;52.196;5.660;2023-08-08T10:02:25;19.80;99.90
75321;DHT22;68337;52.196;5.660;2023-08-08T10:04:52;19.60;99.90
75321;DHT22;68337;52.196;5.660;2023-08-08T10:07:19;19.90;99.90
75321;DHT22;68337;52.196;5.660;2023-08-08T10:09:45;20.00;99.90
75321;DHT22;68337;52.196;5.660;2023-08-08T10:12:11;19.90;99.90
75321;DHT22;68337;52.196;5.660;2023-08-08T10:14:42;19.60;99.90
75321;DHT22;68337;52.196;5.660;2023-08-08T10:17:08;19.80;99.90
75321;DHT22;68337;52.196;5.660;2023-08-08T10:19:39;20.20;99.90
75321;DHT22;68337;52.196;5.660;2023-08-08T10:22:05;20.10;99.90
75321;DHT22;68337;52.196;5.660;2023-08-08T10:24:36;20.40;99.90
75321;DHT22;68337;52.196;5.660;2023-08-08T10:27:02;20.80;99.90
75321;DHT22;68337;52.196;5.660;2023-08-08T10:29:31;20.90;99.90
75321;DHT22;68337;52.196;5.660;2023-08-08T10:32:00;20.10;99.90
75321;DHT22;68337;52.196;5.660;2023-08-08T10:34:39;19.90;99.90
75321;DHT22;68337;52.196;5.660;2023-08-08T10:37:10;20.10;99.90
75321;DHT22;68337;52.196;5.660;2023-08-08T10:39:36;20.20;99.90
75321;DHT22;68337;52.196;5.660;2023-08-08T10:42:04;20.40;99.90
75321;DHT22;68337;52.196;5.660;2023-08-08T10:44:30;20.40;99.90
75321;DHT22;68337;52.196;5.660;2023-08-08T10:46:56;20.80;99.90
75321;DHT22;68337;52.196;5.660;2023-08-08T10:49:22;21.10;99.90
75321;DHT22;68337;52.196;5.660;2023-08-08T10:51:48;21.10;99.90
75321;DHT22;68337;52.196;5.660;2023-08-08T10:54:20;20.80;99.90
75321;DHT22;68337;52.196;5.660;2023-08-08T10:56:52;20.80;99.90
75321;DHT22;68337;52.196;5.660;2023-08-08T10:59:26;20.90;99.90
75321;DHT22;68337;52.196;5.660;2023-08-08T11:01:52;21.20;99.90
75321;DHT22;68337;52.196;5.660;2023-08-08T11:04:20;21.20;99.90
75321;DHT22;68337;52.196;5.660;2023-08-08T11:06:46;21.30;99.90
75321;DHT22;68337;52.196;5.660;2023-08-08T11:09:13;21.30;99.90
75321;DHT22;68337;52.196;5.660;2023-08-08T11:11:41;20.90;99.90
75321;DHT22;68337;52.196;5.660;2023-08-08T11:14:17;21.00;99.90
75321;DHT22;68337;52.196;5.660;2023-08-08T11:16:44;21.00;99.90
75321;DHT22;68337;52.196;5.660;2023-08-08T11:19:11;21.00;99.90
75321;DHT22;68337;52.196;5.660;2023-08-08T11:21:42;20.80;99.90
75321;DHT22;68337;52.196;5.660;2023-08-08T11:24:09;20.70;99.90
75321;DHT22;68337;52.196;5.660;2023-08-08T11:26:36;20.60;99.90
75321;DHT22;68337;52.196;5.660;2023-08-08T11:29:03;21.10;99.90
75321;DHT22;68337;52.196;5.660;2023-08-08T11:31:29;21.00;99.90
75321;DHT22;68337;52.196;5.660;2023-08-08T11:33:56;21.70;99.90
75321;DHT22;68337;52.196;5.660;2023-08-08T11:36:23;21.80;99.90
75321;DHT22;68337;52.196;5.660;2023-08-08T11:38:52;21.70;99.90
75321;DHT22;68337;52.196;5.660;2023-08-08T11:41:22;21.40;99.90
75321;DHT22;68337;52.196;5.660;2023-08-08T11:43:50;21.10;99.90
75321;DHT22;68337;52.196;5.660;2023-08-08T11:46:16;21.30;99.90
75321;DHT22;68337;52.196;5.660;2023-08-08T11:48:46;21.40;99.90
75321;DHT22;68337;52.196;5.660;2023-08-08T11:51:15;21.20;99.90
75321;DHT22;68337;52.196;5.660;2023-08-08T11:53:52;21.00;99.90
75321;DHT22;68337;52.196;5.660;2023-08-08T11:56:19;20.90;99.90
75321;DHT22;68337;52.196;5.660;2023-08-08T11:58:50;20.80;99.90
75321;DHT22;68337;52.196;5.660;2023-08-08T12:01:20;21.70;99.90
75321;DHT22;68337;52.196;5.660;2023-08-08T12:03:46;21.60;99.90
75321;DHT22;68337;52.196;5.660;2023-08-08T12:06:13;21.20;99.90
75321;DHT22;68337;52.196;5.660;2023-08-08T12:08:44;21.50;99.90
75321;DHT22;68337;52.196;5.660;2023-08-08T12:11:12;21.70;99.90
75321;DHT22;68337;52.196;5.660;2023-08-08T12:13:39;22.00;99.90
75321;DHT22;68337;52.196;5.660;2023-08-08T12:16:07;22.00;99.90
75321;DHT22;68337;52.196;5.660;2023-08-08T12:18:35;21.70;99.90
75321;DHT22;68337;52.196;5.660;2023-08-08T12:21:01;21.30;99.90
75321;DHT22;68337;52.196;5.660;2023-08-08T12:23:27;21.50;99.90
75321;DHT22;68337;52.196;5.660;2023-08-08T12:25:53;22.10;99.90
75321;DHT22;68337;52.196;5.660;2023-08-08T12:28:19;22.70;99.90
75321;DHT22;68337;52.196;5.660;2023-08-08T12:30:45;22.50;99.90
75321;DHT22;68337;52.196;5.660;2023-08-08T12:33:11;22.60;99.90
75321;DHT22;68337;52.196;5.660;2023-08-08T12:35:36;22.50;99.90
75321;DHT22;68337;52.196;5.660;2023-08-08T12:38:02;22.70;99.90
75321;DHT22;68337;52.196;5.660;2023-08-08T12:40:29;22.60;99.90
75321;DHT22;68337;52.196;5.660;2023-08-08T12:42:55;22.80;99.90
75321;DHT22;68337;52.196;5.660;2023-08-08T12:45:21;22.90;99.90
75321;DHT22;68337;52.196;5.660;2023-08-08T12:47:47;22.90;99.90
75321;DHT22;68337;52.196;5.660;2023-08-08T12:50:13;22.70;99.90
75321;DHT22;68337;52.196;5.660;2023-08-08T12:52:40;22.30;99.90
75321;DHT22;68337;52.196;5.660;2023-08-08T12:55:06;22.20;99.90
75321;DHT22;68337;52.196;5.660;2023-08-08T12:57:33;22.00;99.90
75321;DHT22;68337;52.196;5.660;2023-08-08T12:59:59;21.70;99.90
75321;DHT22;68337;52.196;5.660;2023-08-08T13:02:24;22.00;99.90
75321;DHT22;68337;52.196;5.660;2023-08-08T13:04:50;22.00;99.90
75321;DHT22;68337;52.196;5.660;2023-08-08T13:07:16;22.00;99.90
75321;DHT22;68337;52.196;5.660;2023-08-08T13:09:42;22.20;99.90
75321;DHT22;68337;52.196;5.660;2023-08-08T13:12:08;21.80;99.90
75321;DHT22;68337;52.196;5.660;2023-08-08T13:14:33;21.20;99.90
75321;DHT22;68337;52.196;5.660;2023-08-08T13:16:59;21.30;99.90
75321;DHT22;68337;52.196;5.660;2023-08-08T13:19:25;21.40;99.90
75321;DHT22;68337;52.196;5.660;2023-08-08T13:21:52;21.80;99.90
75321;DHT22;68337;52.196;5.660;2023-08-08T13:24:18;22.30;99.90
75321;DHT22;68337;52.196;5.660;2023-08-08T13:26:43;22.20;99.90
75321;DHT22;68337;52.196;5.660;2023-08-08T13:29:11;21.80;99.90
75321;DHT22;68337;52.196;5.660;2023-08-08T13:31:37;21.50;99.90
75321;DHT22;68337;52.196;5.660;2023-08-08T13:34:03;21.70;99.90
75321;DHT22;68337;52.196;5.660;2023-08-08T13:36:30;22.10;99.90
75321;DHT22;68337;52.196;5.660;2023-08-08T13:38:59;22.30;99.90
75321;DHT22;68337;52.196;5.660;2023-08-08T13:41:25;22.30;99.90
75321;DHT22;68337;52.196;5.660;2023-08-08T13:43:51;21.60;99.90
75321;DHT22;68337;52.196;5.660;2023-08-08T13:46:17;21.40;99.90
75321;DHT22;68337;52.196;5.660;2023-08-08T13:48:43;21.50;99.90
75321;DHT22;68337;52.196;5.660;2023-08-08T13:51:09;21.50;99.90
75321;DHT22;68337;52.196;5.660;2023-08-08T13:53:35;21.70;99.90
75321;DHT22;68337;52.196;5.660;2023-08-08T13:56:01;21.80;99.90
75321;DHT22;68337;52.196;5.660;2023-08-08T13:58:27;21.80;99.90
75321;DHT22;68337;52.196;5.660;2023-08-08T14:00:55;22.20;99.90
75321;DHT22;68337;52.196;5.660;2023-08-08T14:03:23;21.80;99.90
75321;DHT22;68337;52.196;5.660;2023-08-08T14:05:50;21.60;99.90
75321;DHT22;68337;52.196;5.660;2023-08-08T14:08:18;21.50;99.90
75321;DHT22;68337;52.196;5.660;2023-08-08T14:10:44;21.50;99.90
75321;DHT22;68337;52.196;5.660;2023-08-08T14:13:10;21.30;99.90
75321;DHT22;68337;52.196;5.660;2023-08-08T14:15:37;21.10;99.90
75321;DHT22;68337;52.196;5.660;2023-08-08T14:18:04;21.30;99.90
75321;DHT22;68337;52.196;5.660;2023-08-08T14:20:30;21.30;99.90
75321;DHT22;68337;52.196;5.660;2023-08-08T14:22:55;21.10;99.90
75321;DHT22;68337;52.196;5.660;2023-08-08T14:25:22;20.80;99.90
75321;DHT22;68337;52.196;5.660;2023-08-08T14:27:48;20.80;99.90
75321;DHT22;68337;52.196;5.660;2023-08-08T14:30:14;20.80;99.90
75321;DHT22;68337;52.196;5.660;2023-08-08T14:32:40;20.70;99.90
75321;DHT22;68337;52.196;5.660;2023-08-08T14:35:06;21.00;99.90
75321;DHT22;68337;52.196;5.660;2023-08-08T14:37:35;21.60;99.90
75321;DHT22;68337;52.196;5.660;2023-08-08T14:40:01;21.60;99.90
75321;DHT22;68337;52.196;5.660;2023-08-08T14:42:28;21.50;99.90
75321;DHT22;68337;52.196;5.660;2023-08-08T14:44:54;20.90;99.90
75321;DHT22;68337;52.196;5.660;2023-08-08T14:47:20;20.80;99.90
75321;DHT22;68337;52.196;5.660;2023-08-08T14:49:46;20.60;99.90
75321;DHT22;68337;52.196;5.660;2023-08-08T14:52:13;20.50;99.90
75321;DHT22;68337;52.196;5.660;2023-08-08T14:54:39;20.30;99.90
75321;DHT22;68337;52.196;5.660;2023-08-08T14:57:05;20.40;99.90
75321;DHT22;68337;52.196;5.660;2023-08-08T14:59:31;20.30;99.90
75321;DHT22;68337;52.196;5.660;2023-08-08T15:01:59;20.30;99.90
75321;DHT22;68337;52.196;5.660;2023-08-08T15:04:25;20.40;99.90
75321;DHT22;68337;52.196;5.660;2023-08-08T15:06:51;20.40;99.90
75321;DHT22;68337;52.196;5.660;2023-08-08T15:09:17;20.40;99.90
75321;DHT22;68337;52.196;5.660;2023-08-08T15:11:42;20.30;99.90
75321;DHT22;68337;52.196;5.660;2023-08-08T15:14:08;20.70;99.90
75321;DHT22;68337;52.196;5.660;2023-08-08T15:16:34;20.70;99.90
75321;DHT22;68337;52.196;5.660;2023-08-08T15:19:01;21.00;99.90
75321;DHT22;68337;52.196;5.660;2023-08-08T15:21:26;21.00;99.90
75321;DHT22;68337;52.196;5.660;2023-08-08T15:23:52;20.80;99.90
75321;DHT22;68337;52.196;5.660;2023-08-08T15:26:18;20.80;99.90
75321;DHT22;68337;52.196;5.660;2023-08-08T15:28:46;20.80;99.90
75321;DHT22;68337;52.196;5.660;2023-08-08T15:31:13;20.80;99.90